createdAt,value
2022-10-22T00:14:20.815Z,101135.53
2022-10-22T00:17:27.784Z,101123.03
2022-10-22T00:29:24.120Z,101130.06
2022-10-22T00:34:23.701Z,101118.13
2022-10-22T00:37:00.332Z,101117.25
2022-10-22T00:39:34.025Z,101115.34
2022-10-22T00:42:24.565Z,101119.09
2022-10-22T00:45:20.159Z,101107.06
2022-10-22T00:48:28.823Z,101106.81
2022-10-22T00:51:24.414Z,101095.25
2022-10-22T00:54:06.641Z,101097.81
2022-10-22T00:56:34.914Z,101076.41
2022-10-22T00:59:05.157Z,101080.03
2022-10-22T01:01:33.766Z,101072.38
2022-10-22T01:04:08.201Z,101086.16
2022-10-22T01:06:44.722Z,101071.19
2022-10-22T01:09:42.450Z,101072.25
2022-10-22T01:42:22.775Z,101127.50
2022-10-22T01:47:54.679Z,101139.53
2022-10-22T01:54:51.651Z,101155.09
2022-10-22T01:57:29.457Z,101156.09
2022-10-22T02:03:55.356Z,101155.34
2022-10-22T02:06:52.417Z,101159.97
2022-10-22T02:09:54.015Z,101170.91
2022-10-22T02:12:53.350Z,101177.47
2022-10-22T02:15:54.579Z,101179.28
2022-10-22T02:18:54.174Z,101173.06
2022-10-22T02:21:23.628Z,101178.53
2022-10-22T02:23:54.510Z,101168.81
2022-10-22T02:26:52.698Z,101158.22
2022-10-22T02:29:52.510Z,101154.84
2022-10-22T02:32:52.322Z,101147.06
2022-10-22T02:38:52.280Z,101140.00
2022-10-22T02:41:23.981Z,101126.72
2022-10-22T02:43:58.369Z,101120.53
2022-10-22T02:46:28.028Z,101115.19
2022-10-22T02:48:56.258Z,101105.34
2022-10-22T02:51:24.470Z,101108.97
2022-10-22T02:53:55.824Z,101110.81
2022-10-22T02:56:24.078Z,101103.63
2022-10-22T02:58:55.097Z,101099.34
2022-10-22T03:01:23.367Z,101102.28
2022-10-22T03:03:54.511Z,101090.84
2022-10-22T03:06:22.743Z,101097.28
2022-10-22T03:08:54.071Z,101091.09
2022-10-22T03:11:21.909Z,101090.47
2022-10-22T03:13:50.247Z,101085.25
2022-10-22T03:16:18.709Z,101093.38
2022-10-22T03:18:48.537Z,101097.78
2022-10-22T03:21:35.993Z,101103.97
2022-10-22T03:24:10.854Z,101108.47
2022-10-22T03:26:41.108Z,101106.03
2022-10-22T03:29:11.549Z,101113.19
2022-10-22T03:31:40.007Z,101124.88
2022-10-22T03:34:08.312Z,101103.59
2022-10-22T03:36:36.642Z,101095.59
2022-10-22T03:39:07.130Z,101092.03
2022-10-22T03:41:37.281Z,101106.41
2022-10-22T03:44:06.449Z,101097.50
2022-10-22T03:46:38.440Z,101103.84
2022-10-22T03:49:06.610Z,101114.66
2022-10-22T03:51:44.938Z,101128.03
2022-10-22T03:54:35.443Z,101119.13
2022-10-22T03:57:05.041Z,101111.97
2022-10-22T03:59:55.378Z,101096.78
2022-10-22T04:02:23.640Z,101094.09
2022-10-22T04:04:54.376Z,101111.00
2022-10-22T04:07:25.505Z,101117.34
2022-10-22T04:09:53.719Z,101105.88
2022-10-22T04:12:25.038Z,101107.59
2022-10-22T04:14:53.043Z,101112.44
2022-10-22T04:17:24.312Z,101114.25
2022-10-22T04:19:54.638Z,101109.16
2022-10-22T04:22:25.839Z,101097.59
2022-10-22T04:25:03.345Z,101084.13
2022-10-22T04:27:55.948Z,101072.22
2022-10-22T04:30:24.154Z,101072.22
2022-10-22T04:32:55.979Z,101075.50
2022-10-22T04:37:53.634Z,101087.56
2022-10-22T04:40:22.940Z,101082.81
2022-10-22T04:42:51.120Z,101079.91
2022-10-22T04:45:19.908Z,101078.94
2022-10-22T04:48:24.537Z,101073.34
2022-10-22T04:53:39.061Z,101078.94
2022-10-22T04:56:28.471Z,101073.47
2022-10-22T04:59:24.604Z,101059.38
2022-10-22T05:04:37.336Z,101051.59
2022-10-22T05:07:24.652Z,101045.88
2022-10-22T05:15:40.288Z,101042.09
2022-10-22T05:18:21.756Z,101035.66
2022-10-22T05:21:22.281Z,101032.38
2022-10-22T05:23:52.113Z,101034.19
2022-10-22T05:26:26.336Z,101030.81
2022-10-22T05:28:58.000Z,101031.03
2022-10-22T05:31:26.735Z,101043.66
2022-10-22T05:33:54.872Z,101050.72
2022-10-22T05:36:26.305Z,101052.19
2022-10-22T05:38:55.445Z,101065.56
2022-10-22T05:41:25.501Z,101057.78
2022-10-22T05:43:57.871Z,101053.53
2022-10-22T05:46:30.169Z,101058.16
2022-10-22T05:49:24.931Z,101065.31
2022-10-22T05:51:55.903Z,101072.59
2022-10-22T05:54:24.167Z,101064.81
2022-10-22T05:56:56.675Z,101068.47
2022-10-22T05:59:24.833Z,101074.75
2022-10-22T06:01:55.758Z,101065.78
2022-10-22T06:04:24.263Z,101060.56
2022-10-22T06:06:55.330Z,101057.16
2022-10-22T06:09:32.745Z,101056.41
2022-10-22T06:12:01.968Z,101064.66
2022-10-22T06:14:33.446Z,101071.72
2022-10-22T06:17:02.362Z,101068.19
2022-10-22T06:19:32.061Z,101071.97
2022-10-22T06:22:01.020Z,101065.75
2022-10-22T06:24:29.279Z,101073.53
2022-10-22T06:26:57.510Z,101071.84
2022-10-22T06:29:26.024Z,101072.69
2022-10-22T06:31:54.216Z,101073.78
2022-10-22T06:34:25.872Z,101065.88
2022-10-22T06:36:54.296Z,101076.56
2022-10-22T06:39:25.149Z,101069.19
2022-10-22T06:41:55.972Z,101067.09
2022-10-22T06:44:24.464Z,101058.38
2022-10-22T06:46:55.329Z,101072.69
2022-10-22T06:49:27.419Z,101073.78
2022-10-22T06:51:56.425Z,101073.16
2022-10-22T06:54:25.236Z,101082.16
2022-10-22T06:56:56.661Z,101081.31
2022-10-22T06:59:25.584Z,101083.88
2022-10-22T07:01:56.853Z,101078.16
2022-10-22T07:04:24.658Z,101078.88
2022-10-22T07:06:58.976Z,101089.25
2022-10-22T07:09:27.220Z,101082.66
2022-10-22T07:11:55.399Z,101075.41
2022-10-22T07:14:26.541Z,101069.94
2022-10-22T07:16:54.770Z,101054.72
2022-10-22T07:19:25.814Z,101054.38
2022-10-22T07:21:54.422Z,101050.72
2022-10-22T07:24:25.576Z,101042.81
2022-10-22T07:26:56.827Z,101044.53
2022-10-22T07:29:24.796Z,101043.06
2022-10-22T07:31:55.923Z,101042.34
2022-10-22T07:34:24.284Z,101041.00
2022-10-22T07:36:55.052Z,101040.25
2022-10-22T07:39:26.774Z,101034.31
2022-10-22T07:41:55.613Z,101026.41
2022-10-22T07:44:26.378Z,101033.56
2022-10-22T07:46:54.681Z,101044.25
2022-10-22T07:49:25.844Z,101054.34
2022-10-22T07:51:58.043Z,101048.38
2022-10-22T07:54:27.541Z,101033.31
2022-10-22T07:56:55.873Z,101030.41
2022-10-22T07:59:24.499Z,101030.28
2022-10-22T08:01:53.228Z,101016.06
2022-10-22T08:04:24.920Z,101018.00
2022-10-22T08:06:56.119Z,101004.16
2022-10-22T08:09:26.558Z,101001.38
2022-10-22T08:11:55.641Z,101005.13
2022-10-22T08:14:37.029Z,101015.69
2022-10-22T08:17:05.191Z,101007.44
2022-10-22T08:19:37.389Z,101006.22
2022-10-22T08:22:06.504Z,101003.31
2022-10-22T08:24:39.000Z,101001.59
2022-10-22T08:27:24.465Z,100999.56
2022-10-22T08:29:55.549Z,101012.06
2022-10-22T08:32:55.702Z,100979.03
2022-10-22T08:35:24.597Z,100967.34
2022-10-22T08:37:55.160Z,100960.16
2022-10-22T08:40:50.316Z,100966.47
2022-10-22T08:43:39.802Z,100972.03
2022-10-22T08:46:40.665Z,100981.41
2022-10-22T08:49:31.396Z,100965.81
2022-10-22T08:52:02.299Z,100977.25
2022-10-22T08:54:53.933Z,100976.03
2022-10-22T08:57:49.891Z,100967.00
2022-10-22T09:00:42.095Z,100964.19
2022-10-22T09:03:58.415Z,100947.16
2022-10-22T09:09:55.528Z,100958.63
2022-10-22T09:12:40.586Z,100956.78
2022-10-22T09:15:23.650Z,100943.16
2022-10-22T09:18:02.336Z,100948.41
2022-10-22T09:21:12.905Z,100965.19
2022-10-22T09:24:05.861Z,100962.25
2022-10-22T09:26:57.649Z,100953.22
2022-10-22T09:29:52.633Z,100977.94
2022-10-22T09:32:27.482Z,100974.16
2022-10-22T09:34:59.226Z,100985.59
2022-10-22T09:37:53.903Z,100984.47
2022-10-22T09:40:25.464Z,100987.88
2022-10-22T09:42:54.422Z,100978.88
2022-10-22T09:45:53.932Z,100984.94
2022-10-22T09:48:32.596Z,100974.09
2022-10-22T09:51:07.583Z,100977.50
2022-10-22T09:53:48.174Z,100975.53
2022-10-22T09:56:44.836Z,100975.41
2022-10-22T09:59:17.846Z,100958.38
2022-10-22T10:02:39.314Z,100934.97
2022-10-22T10:05:32.531Z,100931.31
2022-10-22T10:08:06.933Z,100917.09
2022-10-22T10:11:28.788Z,100954.34
2022-10-22T10:14:55.616Z,100989.03
2022-10-22T10:18:08.149Z,100978.03
2022-10-22T10:20:56.985Z,100968.91
2022-10-22T10:27:07.120Z,100942.69
2022-10-22T10:29:55.607Z,100938.06
2022-10-22T10:32:53.722Z,100945.97
2022-10-22T10:35:22.393Z,100947.78
2022-10-22T10:38:34.209Z,100938.50
2022-10-22T10:41:31.681Z,100934.16
2022-10-22T10:44:18.937Z,100925.25
2022-10-22T10:47:06.558Z,100936.97
2022-10-22T10:49:37.063Z,100934.28
2022-10-22T10:52:27.730Z,100938.91
2022-10-22T10:55:26.143Z,100928.06
2022-10-22T10:58:54.248Z,100923.56
2022-10-22T11:02:00.476Z,100924.94
2022-10-22T11:05:03.840Z,100910.81
2022-10-22T11:08:02.610Z,100916.44
2022-10-22T11:10:54.071Z,100913.06
2022-10-22T11:13:50.248Z,100891.03
2022-10-22T11:16:27.070Z,100886.75
2022-10-22T11:19:06.998Z,100894.09
2022-10-22T11:21:50.162Z,100900.69
2022-10-22T11:24:38.190Z,100914.81
2022-10-22T11:27:18.601Z,100916.63
2022-10-22T11:29:53.445Z,100901.44
2022-10-22T11:32:23.544Z,100904.94
2022-10-22T11:34:55.827Z,100902.13
2022-10-22T11:37:28.254Z,100893.38
2022-10-22T11:40:00.625Z,100876.31
2022-10-22T11:42:38.781Z,100882.53
2022-10-22T11:45:16.054Z,100898.47
2022-10-22T11:48:09.127Z,100895.53
2022-10-22T11:50:47.859Z,100903.84
2022-10-22T11:53:16.245Z,100899.31
2022-10-22T11:55:53.436Z,100891.88
2022-10-22T11:58:33.663Z,100890.19
2022-10-22T12:01:11.277Z,100898.34
2022-10-22T12:03:59.607Z,100900.91
2022-10-22T12:06:50.730Z,100896.25
2022-10-22T12:09:20.961Z,100892.31
2022-10-22T12:11:52.065Z,100894.59
2022-10-22T12:14:30.700Z,100887.16
2022-10-22T12:17:11.023Z,100886.78
2022-10-22T12:19:42.208Z,100875.09
2022-10-22T12:22:18.984Z,100875.91
2022-10-22T12:24:58.093Z,100877.50
2022-10-22T12:27:28.940Z,100882.72
2022-10-22T12:29:59.998Z,100893.31
2022-10-22T12:32:58.579Z,100889.66
2022-10-22T12:35:29.680Z,100887.81
2022-10-22T12:38:04.140Z,100871.59
2022-10-22T12:40:54.726Z,100875.09
2022-10-22T12:43:31.171Z,100880.47
2022-10-22T12:46:00.893Z,100882.19
2022-10-22T12:48:57.597Z,100880.59
2022-10-22T12:51:26.003Z,100868.22
2022-10-22T12:53:59.284Z,100866.50
2022-10-22T12:59:56.712Z,100863.00
2022-10-22T13:02:30.601Z,100863.00
2022-10-22T13:08:26.406Z,100858.88
2022-10-22T13:14:27.002Z,100863.91
2022-10-22T13:20:03.214Z,100850.50
2022-10-22T13:31:08.804Z,100877.03
2022-10-22T13:34:29.136Z,100873.38
2022-10-22T13:53:29.480Z,100846.44
2022-10-22T14:18:29.829Z,100880.03
2022-10-22T14:29:11.857Z,100888.66
2022-10-22T14:32:29.442Z,100890.91
2022-10-22T15:21:05.067Z,100929.25
2022-10-22T15:23:38.424Z,100929.41
2022-10-22T15:26:36.938Z,100938.75
2022-10-22T15:29:31.762Z,100933.88
2022-10-22T15:32:31.141Z,100937.00
2022-10-22T15:35:29.831Z,100926.75
2022-10-22T15:41:28.130Z,100926.72
2022-10-22T15:44:02.232Z,100929.69
2022-10-22T15:46:35.374Z,100930.16
2022-10-22T16:27:15.711Z,100925.16
2022-10-22T16:31:06.031Z,100930.69
2022-10-22T16:36:05.029Z,100922.78
2022-10-22T16:42:58.511Z,100922.38
2022-10-22T16:45:30.180Z,100924.81
2022-10-22T17:10:32.238Z,100997.38
2022-10-22T17:13:32.498Z,100979.47
2022-10-22T17:26:04.038Z,100977.53
2022-10-22T17:31:35.874Z,100991.38
2022-10-22T17:34:34.108Z,100987.66
2022-10-22T17:37:14.305Z,100984.97
2022-10-22T18:18:31.793Z,100972.00
2022-10-22T18:28:32.975Z,100984.84
